Time;durP1;ratioP1;P1;durP2;ratioP2;P2;SDS_P1;SDS_P2;PMS_P1;PMS_P2;Temp;Humidity;BMP_temperature;BMP_pressure;BME280_temperature;BME280_humidity;BME280_pressure;Samples;Min_cycle;Max_cycle;Signal;HPM_P1;HPM_P2
2024/01/10 00:00:26;;;;;;;6.93;3.90;;;;;;;-4.26;56.84;103076.19;5040388;28;20063;-63
2024/01/10 00:02:52;;;;;;;8.47;4.40;;;;;;;-4.25;56.70;103064.94;5041028;28;20094;-63
2024/01/10 00:05:17;;;;;;;8.13;4.47;;;;;;;-4.26;56.57;103054.59;5040157;28;20028;-63
2024/01/10 00:07:43;;;;;;;8.03;4.33;;;;;;;-4.25;56.64;103062.34;5039810;28;20848;-63
2024/01/10 00:10:08;;;;;;;6.37;4.27;;;;;;;-4.26;56.70;103052.00;5045321;28;20521;-63
2024/01/10 00:12:36;;;;;;;9.67;4.30;;;;;;;-4.27;56.82;103048.53;5041929;28;20025;-63
2024/01/10 00:15:05;;;;;;;8.27;4.17;;;;;;;-4.29;56.92;103047.72;5046243;28;20490;-63
2024/01/10 00:17:31;;;;;;;10.15;4.97;;;;;;;-4.31;57.01;103052.06;5040600;28;20476;-63
2024/01/10 00:19:56;;;;;;;7.60;4.50;;;;;;;-4.34;57.10;103052.06;5039809;28;20021;-63
2024/01/10 00:22:21;;;;;;;7.87;4.27;;;;;;;-4.35;57.23;103047.78;5039698;28;20654;-63
2024/01/10 00:24:47;;;;;;;7.10;4.53;;;;;;;-4.37;57.32;103041.75;5040387;28;20029;-63
2024/01/10 00:27:13;;;;;;;8.50;4.37;;;;;;;-4.40;57.44;103040.06;5038052;28;20040;-62
2024/01/10 00:29:38;;;;;;;8.03;4.73;;;;;;;-4.40;57.30;103041.78;5040211;28;20021;-62
2024/01/10 00:32:04;;;;;;;8.07;4.30;;;;;;;-4.40;57.35;103045.25;5035013;28;20113;-63
2024/01/10 00:34:29;;;;;;;6.97;4.23;;;;;;;-4.40;57.47;103037.47;5037012;28;20028;-63
2024/01/10 00:36:55;;;;;;;8.50;4.33;;;;;;;-4.38;57.42;103050.41;5042393;28;20106;-63
2024/01/10 00:39:20;;;;;;;8.27;4.73;;;;;;;-4.37;57.66;103041.75;5036953;28;20509;-63
2024/01/10 00:41:45;;;;;;;8.00;4.53;;;;;;;-4.37;57.48;103036.56;5036088;28;20102;-62
2024/01/10 00:44:11;;;;;;;8.60;4.40;;;;;;;-4.37;57.54;103045.19;5036170;28;21038;-62
2024/01/10 00:46:36;;;;;;;8.03;4.43;;;;;;;-4.36;57.30;103046.06;5039159;28;20040;-62
2024/01/10 00:49:01;;;;;;;7.20;4.27;;;;;;;-4.37;57.65;103041.75;5041441;28;20031;-63
2024/01/10 00:51:26;;;;;;;8.90;4.50;;;;;;;-4.38;57.66;103046.06;5037704;28;20032;-62
2024/01/10 00:53:52;;;;;;;7.30;4.70;;;;;;;-4.39;57.83;103040.91;5036962;28;20036;-63
2024/01/10 00:56:17;;;;;;;8.60;4.37;;;;;;;-4.40;58.05;103041.78;5041422;28;20427;-63
2024/01/10 00:58:42;;;;;;;8.27;4.60;;;;;;;-4.42;58.06;103040.97;5039445;28;20029;-62
2024/01/10 01:01:08;;;;;;;8.90;4.67;;;;;;;-4.44;58.10;103034.94;5039807;28;20094;-62
2024/01/10 01:03:33;;;;;;;8.60;4.60;;;;;;;-4.45;58.09;103033.22;5034985;28;20083;-62
2024/01/10 01:05:59;;;;;;;8.73;4.57;;;;;;;-4.48;58.32;103030.69;5036868;28;20175;-62
2024/01/10 01:08:24;;;;;;;9.10;4.77;;;;;;;-4.50;58.45;103028.09;5036431;28;20696;-62
2024/01/10 01:10:50;;;;;;;7.70;4.83;;;;;;;-4.50;58.32;103025.50;5036964;28;20030;-62
2024/01/10 01:13:15;;;;;;;9.20;5.13;;;;;;;-4.49;58.42;103026.38;5039032;28;20032;-63
2024/01/10 01:15:40;;;;;;;8.63;4.83;;;;;;;-4.52;58.40;103029.00;5039568;28;20120;-62
2024/01/10 01:18:06;;;;;;;10.00;5.07;;;;;;;-4.53;58.57;103024.69;5040027;28;20029;-63
2024/01/10 01:20:31;;;;;;;7.20;4.67;;;;;;;-4.53;58.73;103029.88;5039543;28;20793;-62
2024/01/10 01:22:56;;;;;;;8.57;5.00;;;;;;;-4.55;58.99;103031.66;5039660;28;20032;-62
2024/01/10 01:25:22;;;;;;;9.80;5.10;;;;;;;-4.57;59.21;103028.22;5039726;28;20112;-62
2024/01/10 01:27:47;;;;;;;8.17;5.20;;;;;;;-4.58;59.19;103031.69;5037891;28;20660;-62
2024/01/10 01:30:12;;;;;;;8.23;4.73;;;;;;;-4.61;59.43;103023.94;5037350;28;20158;-63
2024/01/10 01:32:38;;;;;;;10.53;5.27;;;;;;;-4.64;59.41;103030.00;5033904;28;20051;-62
2024/01/10 01:35:04;;;;;;;8.30;4.80;;;;;;;-4.68;59.63;103029.19;5038028;28;20615;-62
2024/01/10 01:37:29;;;;;;;8.70;5.03;;;;;;;-4.69;59.77;103027.47;5033371;28;20616;-62
2024/01/10 01:39:55;;;;;;;10.90;5.00;;;;;;;-4.68;59.76;103029.19;5038596;28;20162;-62
2024/01/10 01:42:20;;;;;;;9.37;4.80;;;;;;;-4.68;59.98;103028.34;5035753;28;20142;-63
2024/01/10 01:44:45;;;;;;;8.53;4.83;;;;;;;-4.69;60.17;103021.44;5036662;28;20021;-62
2024/01/10 01:47:11;;;;;;;9.17;5.37;;;;;;;-4.71;60.07;103023.19;5036503;28;20048;-62
2024/01/10 01:49:36;;;;;;;11.37;5.37;;;;;;;-4.70;60.14;103025.75;5039513;28;20406;-62
2024/01/10 01:52:02;;;;;;;7.10;4.50;;;;;;;-4.70;60.26;103022.31;5034802;28;20028;-62
2024/01/10 01:54:28;;;;;;;9.23;5.03;;;;;;;-4.72;60.33;103024.06;5038101;28;20037;-62
2024/01/10 01:56:54;;;;;;;8.60;4.70;;;;;;;-4.73;60.60;103017.16;5041598;28;20589;-62
2024/01/10 01:59:20;;;;;;;7.87;4.53;;;;;;;-4.77;60.59;103026.72;5038611;28;20032;-62
2024/01/10 02:01:45;;;;;;;9.07;4.87;;;;;;;-4.78;60.71;103019.81;5029907;28;20398;-63
2024/01/10 02:04:11;;;;;;;8.67;4.53;;;;;;;-4.79;60.88;103018.09;5035785;28;20789;-62
2024/01/10 02:06:37;;;;;;;9.47;5.03;;;;;;;-4.84;60.89;103011.28;5038808;28;20052;-62
2024/01/10 02:09:03;;;;;;;11.13;5.00;;;;;;;-4.86;61.12;103021.66;5037537;28;20433;-62
2024/01/10 02:11:29;;;;;;;8.93;5.23;;;;;;;-4.90;61.03;103004.44;5038357;28;20024;-62
2024/01/10 02:13:54;;;;;;;9.80;5.10;;;;;;;-4.84;61.30;103008.69;5039398;28;20032;-62
2024/01/10 02:16:21;;;;;;;8.77;4.70;;;;;;;-4.90;61.37;103004.44;5038054;28;20194;-63
2024/01/10 02:18:46;;;;;;;9.43;5.10;;;;;;;-4.87;61.53;103009.56;5038847;28;20132;-63
2024/01/10 02:21:12;;;;;;;8.23;4.80;;;;;;;-4.91;61.62;103012.22;5034777;28;20109;-63
2024/01/10 02:23:37;;;;;;;6.73;4.50;;;;;;;-4.89;61.89;103013.06;5036090;28;20033;-62
2024/01/10 02:26:02;;;;;;;10.07;5.10;;;;;;;-4.91;62.03;103013.09;5036689;28;20128;-62
2024/01/10 02:28:28;;;;;;;6.90;4.43;;;;;;;-4.92;62.10;103015.66;5040046;28;20056;-63
2024/01/10 02:30:54;;;;;;;6.53;4.43;;;;;;;-4.93;62.08;103022.56;5039014;28;20036;-63
2024/01/10 02:33:20;;;;;;;8.23;4.70;;;;;;;-4.96;62.48;103008.81;5039888;28;20040;-62
2024/01/10 02:35:45;;;;;;;8.07;4.67;;;;;;;-4.98;62.61;103014.00;5036585;28;20025;-62
2024/01/10 02:38:10;;;;;;;8.83;4.90;;;;;;;-5.00;62.89;103010.59;5037811;28;20042;-62
2024/01/10 02:40:36;;;;;;;10.47;4.80;;;;;;;-5.01;63.15;103011.47;5037964;28;20398;-63
2024/01/10 02:43:01;;;;;;;9.27;5.13;;;;;;;-5.01;63.10;103014.06;5038645;28;20024;-63
2024/01/10 02:45:26;;;;;;;9.73;5.13;;;;;;;-5.02;63.26;103010.59;5041177;28;20036;-63
2024/01/10 02:47:52;;;;;;;10.47;4.50;;;;;;;-5.08;63.49;103002.91;5040459;28;20429;-63
2024/01/10 02:50:17;;;;;;;8.17;5.00;;;;;;;-5.08;63.74;103004.63;5036634;28;20487;-62
2024/01/10 02:52:42;;;;;;;7.93;4.77;;;;;;;-5.08;63.99;103002.03;5036036;28;20699;-63
2024/01/10 02:55:08;;;;;;;9.70;5.20;;;;;;;-5.13;64.04;103001.25;5039708;28;20035;-63
2024/01/10 02:57:33;;;;;;;10.73;5.17;;;;;;;-5.11;64.36;103000.34;5045554;28;20040;-63
2024/01/10 02:59:59;;;;;;;10.80;5.17;;;;;;;-5.11;64.57;103000.34;5041140;28;20032;-63
2024/01/10 03:02:24;;;;;;;8.47;5.23;;;;;;;-5.14;64.50;102995.22;5043868;28;20371;-62
2024/01/10 03:04:49;;;;;;;8.57;5.23;;;;;;;-5.15;64.67;102983.13;5038934;28;20418;-63
2024/01/10 03:07:15;;;;;;;7.77;4.93;;;;;;;-5.15;64.73;102988.31;5042332;28;20082;-63
2024/01/10 03:09:40;;;;;;;8.83;5.07;;;;;;;-5.16;65.00;102983.16;5040017;28;20025;-62
2024/01/10 03:12:06;;;;;;;8.20;5.03;;;;;;;-5.18;65.07;102977.13;5039441;28;20033;-62
2024/01/10 03:14:32;;;;;;;9.77;5.20;;;;;;;-5.24;65.28;102978.03;5041182;28;20375;-62
2024/01/10 03:16:58;;;;;;;9.37;4.80;;;;;;;-5.22;65.43;102973.69;5041954;28;20029;-63
2024/01/10 03:19:23;;;;;;;9.37;5.33;;;;;;;-5.21;65.49;102966.78;5042287;28;20032;-63
2024/01/10 03:21:48;;;;;;;8.83;5.20;;;;;;;-5.23;65.70;102961.63;5039783;28;20040;-62
2024/01/10 03:24:14;;;;;;;9.77;5.43;;;;;;;-5.24;65.91;102964.22;5043584;28;21956;-63
2024/01/10 03:26:39;;;;;;;10.67;5.23;;;;;;;-5.31;65.97;102951.34;5040424;28;20710;-62
2024/01/10 03:29:04;;;;;;;9.20;5.37;;;;;;;-5.26;66.09;102963.41;5042001;28;20044;-63
2024/01/10 03:31:31;;;;;;;8.70;5.30;;;;;;;-5.26;66.25;102959.06;5042142;28;20142;-63
2024/01/10 03:33:58;;;;;;;8.97;5.20;;;;;;;-5.27;66.20;102961.69;5039580;28;21140;-62
2024/01/10 03:36:23;;;;;;;8.53;5.10;;;;;;;-5.24;66.24;102959.06;5037830;28;20021;-62
2024/01/10 03:38:49;;;;;;;10.53;5.57;;;;;;;-5.24;66.24;102964.22;5039924;28;20028;-63
2024/01/10 03:41:16;;;;;;;9.30;5.40;;;;;;;-5.24;66.36;102961.66;5043499;28;20039;-62
2024/01/10 03:43:41;;;;;;;11.33;5.60;;;;;;;-5.24;66.42;102966.81;5042332;28;20427;-63
2024/01/10 03:46:07;;;;;;;9.77;4.97;;;;;;;-5.25;66.34;102965.97;5042759;28;20025;-63
2024/01/10 03:48:32;;;;;;;9.20;5.53;;;;;;;-5.25;66.50;102957.34;5038846;28;20522;-62
2024/01/10 03:50:58;;;;;;;9.03;5.33;;;;;;;-5.27;66.48;102959.09;5050190;28;20040;-63
2024/01/10 03:53:23;;;;;;;9.10;5.17;;;;;;;-5.31;66.54;102941.00;5040759;28;20070;-63
2024/01/10 03:55:48;;;;;;;9.73;5.80;;;;;;;-5.30;66.66;102947.03;5039063;28;20120;-63
2024/01/10 03:58:14;;;;;;;9.97;5.10;;;;;;;-5.28;66.90;102950.47;5037170;28;20398;-63
2024/01/10 04:00:39;;;;;;;10.30;5.43;;;;;;;-5.27;67.00;102952.19;5036517;28;20658;-62
2024/01/10 04:03:04;;;;;;;9.87;5.30;;;;;;;-5.28;67.23;102944.44;5044626;28;20462;-63
2024/01/10 04:05:30;;;;;;;8.53;5.10;;;;;;;-5.27;67.23;102941.81;5042861;28;20021;-63
2024/01/10 04:07:56;;;;;;;10.60;5.53;;;;;;;-5.28;67.27;102939.25;5037716;28;20027;-62
2024/01/10 04:10:22;;;;;;;9.73;5.33;;;;;;;-5.28;67.32;102939.25;5043012;28;20603;-63
2024/01/10 04:12:48;;;;;;;9.60;4.80;;;;;;;-5.32;67.24;102939.28;5039338;28;20029;-63
2024/01/10 04:15:14;;;;;;;9.20;4.93;;;;;;;-5.31;67.29;102932.38;5039407;28;20032;-63
2024/01/10 04:17:39;;;;;;;10.23;5.20;;;;;;;-5.33;67.29;102924.63;5042828;28;20087;-62
2024/01/10 04:20:05;;;;;;;11.13;5.50;;;;;;;-5.34;67.55;102927.25;5042865;28;20029;-62
2024/01/10 04:22:31;;;;;;;10.60;5.50;;;;;;;-5.36;67.95;102923.81;5040180;28;20064;-62
2024/01/10 04:24:58;;;;;;;9.43;5.07;;;;;;;-5.38;67.82;102929.00;5044301;28;20025;-62
2024/01/10 04:27:23;;;;;;;8.30;4.77;;;;;;;-5.39;68.03;102921.25;5040068;28;20075;-62
2024/01/10 04:29:48;;;;;;;9.17;5.23;;;;;;;-5.40;68.19;102930.75;5042527;28;20056;-62
2024/01/10 04:32:14;;;;;;;9.63;5.47;;;;;;;-5.41;68.38;102923.88;5039141;28;20898;-62
2024/01/10 04:34:39;;;;;;;10.93;5.47;;;;;;;-5.42;68.38;102922.16;5044280;28;20112;-62
2024/01/10 04:37:06;;;;;;;10.63;5.97;;;;;;;-5.41;68.40;102920.44;5040575;28;20025;-62
2024/01/10 04:39:32;;;;;;;9.67;5.37;;;;;;;-5.40;68.61;102923.00;5043914;28;20526;-62
2024/01/10 04:41:57;;;;;;;10.07;5.20;;;;;;;-5.42;68.97;102922.16;5039553;28;20040;-62
2024/01/10 04:44:23;;;;;;;10.57;5.33;;;;;;;-5.43;68.88;102920.44;5041615;28;20104;-62
2024/01/10 04:46:48;;;;;;;9.67;5.40;;;;;;;-5.43;69.17;102917.84;5039004;28;20059;-62
2024/01/10 04:49:13;;;;;;;11.27;5.20;;;;;;;-5.45;68.96;102917.00;5039850;28;20041;-62
2024/01/10 04:51:39;;;;;;;8.83;5.17;;;;;;;-5.46;69.08;102909.28;5037843;28;20144;-62
2024/01/10 04:54:04;;;;;;;12.33;5.37;;;;;;;-5.46;69.12;102914.44;5041838;28;20059;-62
2024/01/10 04:56:29;;;;;;;9.57;4.97;;;;;;;-5.46;69.20;102925.66;5041183;28;20040;-62
2024/01/10 04:58:55;;;;;;;12.23;5.57;;;;;;;-5.44;69.41;102929.09;5042886;28;20565;-62
2024/01/10 05:01:20;;;;;;;9.20;5.33;;;;;;;-5.43;69.32;102930.81;5036913;28;20545;-62
2024/01/10 05:03:45;;;;;;;12.67;5.27;;;;;;;-5.42;69.37;102937.69;5041331;28;20036;-62
2024/01/10 05:06:11;;;;;;;10.87;5.33;;;;;;;-5.41;69.29;102934.22;5024510;28;20067;-62
2024/01/10 05:08:36;;;;;;;10.00;5.50;;;;;;;-5.42;69.35;102929.94;5034241;28;20163;-62
2024/01/10 05:11:02;;;;;;;8.57;5.17;;;;;;;-5.40;69.32;102930.75;5032105;28;20063;-62
2024/01/10 05:13:27;;;;;;;8.30;5.13;;;;;;;-5.43;69.28;102925.63;5037464;28;20029;-62
2024/01/10 05:15:54;;;;;;;10.97;5.13;;;;;;;-5.44;69.24;102928.22;5039112;28;20101;-62
2024/01/10 05:18:20;;;;;;;10.67;5.07;;;;;;;-5.46;69.24;102924.81;5040962;28;20044;-62
2024/01/10 05:20:45;;;;;;;9.03;5.03;;;;;;;-5.47;69.37;102923.09;5041089;28;20664;-62
2024/01/10 05:23:11;;;;;;;9.17;5.20;;;;;;;-5.48;69.47;102919.66;5041434;28;20115;-62
2024/01/10 05:25:36;;;;;;;13.47;5.60;;;;;;;-5.50;69.44;102918.78;5040283;28;20043;-62
2024/01/10 05:28:02;;;;;;;9.60;5.43;;;;;;;-5.54;69.54;102917.09;5042474;28;20033;-62
2024/01/10 05:30:27;;;;;;;10.10;5.73;;;;;;;-5.52;69.71;102915.34;5041082;28;20029;-62
2024/01/10 05:32:52;;;;;;;11.13;5.70;;;;;;;-5.58;69.74;102902.47;5042297;28;20032;-62
2024/01/10 05:35:17;;;;;;;8.43;5.20;;;;;;;-5.57;69.96;102913.69;5039695;28;20044;-62
2024/01/10 05:37:44;;;;;;;12.17;5.70;;;;;;;-5.59;70.15;102905.09;5042292;28;20057;-62
2024/01/10 05:40:10;;;;;;;9.23;5.20;;;;;;;-5.62;70.16;102912.00;5040397;28;20060;-62
2024/01/10 05:42:36;;;;;;;9.53;5.40;;;;;;;-5.66;70.38;102912.91;5038206;28;20036;-62
2024/01/10 05:45:02;;;;;;;9.83;5.40;;;;;;;-5.63;70.22;102917.22;5035321;28;20053;-62
2024/01/10 05:47:27;;;;;;;11.47;6.00;;;;;;;-5.63;70.60;102912.03;5042425;28;20036;-62
2024/01/10 05:49:53;;;;;;;10.60;5.63;;;;;;;-5.64;70.39;102916.34;5039349;28;20060;-62
2024/01/10 05:52:19;;;;;;;9.33;4.90;;;;;;;-5.65;70.51;102912.03;5042161;28;20391;-62
2024/01/10 05:54:45;;;;;;;10.70;5.43;;;;;;;-5.64;70.41;102920.66;5041105;28;20128;-62
2024/01/10 05:57:10;;;;;;;10.93;5.47;;;;;;;-5.63;70.46;102922.38;5044649;28;20033;-62
2024/01/10 05:59:36;;;;;;;10.77;5.83;;;;;;;-5.62;70.33;102916.34;5036884;28;20146;-62
2024/01/10 06:02:02;;;;;;;12.03;5.33;;;;;;;-5.61;70.59;102918.03;5040344;28;20037;-62
2024/01/10 06:04:30;;;;;;;11.40;5.47;;;;;;;-5.64;70.69;102916.34;5039490;28;20025;-62
2024/01/10 06:06:57;;;;;;;10.97;5.80;;;;;;;-5.64;70.79;102923.25;5049115;28;20094;-62
2024/01/10 06:09:22;;;;;;;9.50;5.80;;;;;;;-5.64;70.74;102923.25;5039427;28;20032;-62
2024/01/10 06:11:48;;;;;;;9.00;5.67;;;;;;;-5.63;70.78;102924.97;5038177;28;20043;-62
2024/01/10 06:14:13;;;;;;;10.63;5.60;;;;;;;-5.64;70.77;102924.13;5036115;28;20032;-62
2024/01/10 06:16:39;;;;;;;12.73;6.40;;;;;;;-5.65;70.81;102924.13;5038251;28;20021;-62
2024/01/10 06:19:05;;;;;;;10.27;5.47;;;;;;;-5.66;70.90;102920.69;5043428;28;20152;-62
2024/01/10 06:21:30;;;;;;;10.07;5.23;;;;;;;-5.67;70.97;102920.69;5043828;28;20107;-62
2024/01/10 06:23:56;;;;;;;11.80;5.57;;;;;;;-5.69;71.05;102922.44;5042959;28;20056;-62
2024/01/10 06:26:22;;;;;;;10.27;5.40;;;;;;;-5.70;71.03;102920.75;5045869;28;20551;-62
2024/01/10 06:28:47;;;;;;;10.90;5.90;;;;;;;-5.72;70.86;102917.31;5047279;28;20123;-62
2024/01/10 06:31:12;;;;;;;10.10;5.50;;;;;;;-5.74;70.98;102926.81;5043443;28;20037;-62
2024/01/10 06:33:38;;;;;;;10.40;6.00;;;;;;;-5.75;71.07;102919.94;5044780;28;20123;-61
2024/01/10 06:36:03;;;;;;;9.93;5.47;;;;;;;-5.79;71.15;102900.97;5040546;28;20056;-62
2024/01/10 06:38:29;;;;;;;13.07;6.10;;;;;;;-5.82;71.22;102902.72;5040103;28;20043;-61
2024/01/10 06:40:54;;;;;;;9.57;5.43;;;;;;;-5.85;71.25;102910.53;5043366;28;20108;-62
2024/01/10 06:43:19;;;;;;;10.83;6.03;;;;;;;-5.88;71.28;102908.81;5043384;28;20059;-62
2024/01/10 06:45:45;;;;;;;10.87;5.70;;;;;;;-5.90;71.43;102912.34;5040727;28;20040;-62
2024/01/10 06:48:10;;;;;;;10.87;5.87;;;;;;;-5.91;71.77;102911.47;5045467;28;20148;-62
2024/01/10 06:50:36;;;;;;;10.03;6.13;;;;;;;-5.94;71.87;102902.03;5044559;28;20028;-62
2024/01/10 06:53:02;;;;;;;9.97;5.83;;;;;;;-5.95;71.84;102908.06;5037415;28;20029;-62
2024/01/10 06:55:29;;;;;;;12.90;6.60;;;;;;;-5.95;72.09;102902.91;5037938;28;20086;-62
2024/01/10 06:57:54;;;;;;;11.70;6.00;;;;;;;-6.01;71.86;102902.97;5037654;28;20033;-62
2024/01/10 07:00:21;;;;;;;12.57;5.70;;;;;;;-5.97;71.96;102911.53;5047224;28;20032;-62
2024/01/10 07:02:47;;;;;;;11.47;5.97;;;;;;;-5.98;72.05;102917.59;5038368;28;20120;-62
2024/01/10 07:05:12;;;;;;;9.40;5.50;;;;;;;-5.98;72.08;102921.03;5040194;28;20104;-62
2024/01/10 07:07:37;;;;;;;10.50;6.17;;;;;;;-5.98;72.29;102922.75;5039538;28;21167;-62
2024/01/10 07:10:04;;;;;;;10.90;6.10;;;;;;;-6.02;72.22;102921.94;5043865;28;20033;-62
2024/01/10 07:12:34;;;;;;;11.83;6.00;;;;;;;-6.02;72.16;102921.94;5041498;28;20033;-62
2024/01/10 07:14:59;;;;;;;11.50;5.72;;;;;;;-6.00;72.23;102924.50;5036553;28;20107;-61
2024/01/10 07:17:25;;;;;;;12.37;6.47;;;;;;;-6.01;72.23;102922.78;5042562;28;20029;-62
2024/01/10 07:19:50;;;;;;;11.87;5.97;;;;;;;-6.02;72.55;102918.50;5041797;28;20067;-61
2024/01/10 07:22:17;;;;;;;12.33;6.97;;;;;;;-6.03;72.58;102929.72;5044122;28;20452;-62
2024/01/10 07:24:43;;;;;;;14.17;7.07;;;;;;;-6.03;72.57;102937.47;5037225;28;20086;-62
2024/01/10 07:27:09;;;;;;;12.90;7.03;;;;;;;-6.03;72.68;102934.88;5043243;28;20028;-61
2024/01/10 07:29:35;;;;;;;11.57;6.60;;;;;;;-6.04;72.71;102935.75;5042902;28;20029;-62
2024/01/10 07:32:00;;;;;;;53.10;19.67;;;;;;;-6.06;72.83;102938.34;5040978;28;20040;-62
2024/01/10 07:34:25;;;;;;;24.03;11.67;;;;;;;-6.07;72.95;102936.63;5040332;28;20041;-61
2024/01/10 07:36:51;;;;;;;18.23;9.63;;;;;;;-6.08;73.07;102934.88;5037478;28;20060;-62
2024/01/10 07:39:20;;;;;;;14.13;8.20;;;;;;;-6.08;72.97;102937.47;5042085;28;20136;-62
2024/01/10 07:41:46;;;;;;;13.50;7.95;;;;;;;-6.08;73.02;102928.88;5036429;28;20590;-62
2024/01/10 07:44:12;;;;;;;14.67;7.47;;;;;;;-6.08;73.04;102928.88;5035874;28;20029;-62
2024/01/10 07:46:38;;;;;;;14.33;7.67;;;;;;;-6.09;73.25;102930.59;5037197;28;20024;-61
2024/01/10 07:49:04;;;;;;;17.07;7.73;;;;;;;-6.11;73.43;102918.53;5041639;28;20082;-62
2024/01/10 07:51:30;;;;;;;14.13;7.07;;;;;;;-6.13;73.27;102912.53;5038323;28;20036;-62
2024/01/10 07:53:55;;;;;;;14.07;7.10;;;;;;;-6.14;73.29;102909.09;5036537;28;20029;-62
2024/01/10 07:56:21;;;;;;;10.70;6.70;;;;;;;-6.14;72.94;102909.09;5035669;28;20054;-62
2024/01/10 07:58:46;;;;;;;11.30;6.80;;;;;;;-6.14;73.21;102911.69;5037716;28;20043;-62
2024/01/10 08:01:12;;;;;;;14.17;7.27;;;;;;;-6.12;73.42;102917.69;5037452;28;20103;-62
2024/01/10 08:03:37;;;;;;;12.57;7.77;;;;;;;-6.12;73.51;102907.34;5041701;28;20177;-62
2024/01/10 08:06:03;;;;;;;15.20;7.23;;;;;;;-6.11;73.54;102895.28;5034036;28;20117;-63
2024/01/10 08:08:28;;;;;;;12.50;7.67;;;;;;;-6.09;73.64;102898.69;5036844;28;20029;-62
2024/01/10 08:10:55;;;;;;;14.07;7.20;;;;;;;-6.06;73.64;102909.91;5030373;28;20565;-62
2024/01/10 08:13:21;;;;;;;13.43;7.37;;;;;;;-6.03;73.74;102899.53;5039571;28;20577;-62
2024/01/10 08:15:46;;;;;;;11.87;6.50;;;;;;;-6.01;73.76;102908.13;5039131;28;20376;-62
2024/01/10 08:18:11;;;;;;;13.97;7.33;;;;;;;-6.01;73.69;102910.72;5040180;28;20035;-62
2024/01/10 08:20:37;;;;;;;14.43;7.57;;;;;;;-5.91;73.85;102919.25;5040543;28;20024;-61
2024/01/10 08:23:02;;;;;;;19.97;11.23;;;;;;;-5.84;73.91;102926.03;5037473;28;20029;-62
2024/01/10 08:25:27;;;;;;;16.33;7.60;;;;;;;-5.76;73.89;102933.75;5037426;28;20032;-62
2024/01/10 08:27:55;;;;;;;12.80;6.73;;;;;;;-5.68;73.92;102925.03;5040467;28;20029;-62
2024/01/10 08:30:21;;;;;;;12.67;7.13;;;;;;;-5.59;73.69;102923.19;5040743;28;20033;-62
2024/01/10 08:32:47;;;;;;;14.90;7.23;;;;;;;-5.51;73.55;102922.25;5041280;28;20025;-62
2024/01/10 08:35:12;;;;;;;12.73;7.10;;;;;;;-5.42;73.24;102916.97;5039452;28;20029;-62
2024/01/10 08:37:37;;;;;;;13.17;7.77;;;;;;;-5.34;73.15;102919.47;5039270;28;20036;-62
2024/01/10 08:40:07;;;;;;;13.00;7.57;;;;;;;-5.24;73.03;102920.22;5036755;28;20047;-62
2024/01/10 08:42:33;;;;;;;14.07;7.20;;;;;;;-5.14;72.91;102911.47;5037698;28;20413;-62
2024/01/10 08:44:58;;;;;;;13.90;7.13;;;;;;;-5.05;72.86;102922.56;5037803;28;20083;-62
2024/01/10 08:47:24;;;;;;;16.73;8.67;;;;;;;-4.93;72.72;102920.69;5038931;28;20962;-62
2024/01/10 08:49:49;;;;;;;14.27;7.47;;;;;;;-4.88;72.48;102919.75;5032936;28;20029;-62
2024/01/10 08:52:15;;;;;;;14.23;7.53;;;;;;;-4.80;72.12;102919.66;5041216;28;20029;-61
2024/01/10 08:54:40;;;;;;;16.00;7.70;;;;;;;-4.70;72.00;102922.09;5035957;28;20512;-62
2024/01/10 08:57:05;;;;;;;15.87;7.93;;;;;;;-4.57;71.75;102915.00;5040244;28;20039;-62
2024/01/10 08:59:31;;;;;;;14.67;7.63;;;;;;;-4.42;71.24;102909.56;5036337;28;20037;-62
2024/01/10 09:01:56;;;;;;;16.10;7.90;;;;;;;-4.27;70.99;102920.59;5038512;28;20443;-62
2024/01/10 09:04:21;;;;;;;12.73;7.17;;;;;;;-4.11;70.55;102922.03;5038123;28;20075;-62
2024/01/10 09:06:47;;;;;;;12.67;7.20;;;;;;;-3.97;70.13;102927.03;5044890;28;20518;-62
2024/01/10 09:09:15;;;;;;;12.73;7.47;;;;;;;-3.84;69.47;102928.50;5041411;28;20044;-62
2024/01/10 09:11:41;;;;;;;17.33;8.03;;;;;;;-3.72;68.66;102930.91;5036551;28;20025;-62
2024/01/10 09:14:06;;;;;;;13.80;7.27;;;;;;;-3.63;68.28;102929.88;5040987;28;22066;-63
2024/01/10 09:16:32;;;;;;;13.50;7.43;;;;;;;-3.51;67.90;102927.88;5033896;28;20397;-63
2024/01/10 09:18:58;;;;;;;14.97;7.53;;;;;;;-3.41;67.63;102932.94;5036941;28;20040;-63
2024/01/10 09:21:26;;;;;;;15.10;8.43;;;;;;;-3.31;67.33;102935.31;5040475;28;20067;-63
2024/01/10 09:23:52;;;;;;;16.03;8.60;;;;;;;-3.24;66.94;102931.69;5037609;28;20043;-64
2024/01/10 09:26:18;;;;;;;14.20;8.00;;;;;;;-3.20;66.35;102933.34;5038535;28;20024;-63
2024/01/10 09:28:44;;;;;;;15.70;8.37;;;;;;;-3.13;66.23;102934.09;5039708;28;20103;-63
2024/01/10 09:31:09;;;;;;;13.40;7.30;;;;;;;-3.08;65.95;102932.25;5039601;28;20032;-64
2024/01/10 09:33:34;;;;;;;14.77;8.57;;;;;;;-3.07;65.30;102931.34;5037666;28;20525;-64
2024/01/10 09:36:00;;;;;;;15.57;8.20;;;;;;;-3.04;64.99;102940.84;5036867;28;20025;-64
2024/01/10 09:38:25;;;;;;;14.80;8.30;;;;;;;-2.99;65.17;102951.97;5039490;28;20033;-64
2024/01/10 09:41:00;;;;;;;15.43;8.03;;;;;;;-2.94;64.89;102947.53;5035217;28;20033;-64
2024/01/10 09:43:27;;;;;;;15.03;8.70;;;;;;;-2.95;64.40;102943.22;5034744;28;20025;-64
2024/01/10 09:45:54;;;;;;;16.37;8.67;;;;;;;-2.95;64.03;102948.44;5036592;28;20052;-64
2024/01/10 09:48:20;;;;;;;17.37;9.27;;;;;;;-2.92;63.73;102944.03;5036345;28;20521;-64
2024/01/10 09:50:49;;;;;;;14.53;8.67;;;;;;;-2.86;63.59;102938.72;5039404;28;20036;-64
2024/01/10 09:53:23;;;;;;;19.65;9.18;;;;;;;-2.81;63.25;102944.66;5033573;28;20276;-64
2024/01/10 09:55:48;;;;;;;18.27;9.60;;;;;;;-2.75;62.81;102943.66;5037742;28;20070;-64
2024/01/10 09:58:14;;;;;;;16.17;8.83;;;;;;;-2.72;62.47;102940.16;5037681;28;20048;-64
2024/01/10 10:00:40;;;;;;;16.33;9.73;;;;;;;-2.74;61.99;102941.94;5038644;28;20691;-64
2024/01/10 10:03:12;;;;;;;17.73;9.30;;;;;;;-2.83;61.62;102922.19;5040320;28;20111;-64
2024/01/10 10:05:37;;;;;;;17.87;8.97;;;;;;;-2.73;61.61;102936.69;5037081;28;20677;-64
2024/01/10 10:08:06;;;;;;;18.80;9.30;;;;;;;-2.69;61.32;102937.47;5035763;28;20051;-64
2024/01/10 10:10:32;;;;;;;16.67;9.05;;;;;;;-2.68;61.20;102933.97;5035616;28;20016;-64
2024/01/10 10:12:57;;;;;;;16.73;9.50;;;;;;;-2.72;60.62;102930.59;5032560;28;20089;-63
2024/01/10 10:15:27;;;;;;;18.50;9.93;;;;;;;-2.73;60.44;102928.03;5033554;28;20479;-64
2024/01/10 10:17:53;;;;;;;18.92;10.32;;;;;;;-2.74;60.13;102931.53;5036240;28;20455;-64
2024/01/10 10:20:33;;;;;;;17.50;9.60;;;;;;;-2.71;60.06;102936.66;5043100;28;20112;-64
2024/01/10 10:23:01;;;;;;;17.55;9.85;;;;;;;-2.73;59.85;102923.69;5037085;28;20024;-64
2024/01/10 10:25:30;;;;;;;16.87;9.37;;;;;;;-2.74;59.84;102926.31;5035579;28;20025;-64
2024/01/10 10:27:55;;;;;;;18.67;10.10;;;;;;;-2.77;59.66;102939.41;5035757;28;20037;-64
2024/01/10 10:30:22;;;;;;;19.20;9.87;;;;;;;-2.76;59.67;102934.16;5035421;28;20025;-64
2024/01/10 10:32:47;;;;;;;21.17;10.27;;;;;;;-2.75;59.64;102929.81;5035984;28;20037;-64
2024/01/10 10:35:12;;;;;;;20.53;10.80;;;;;;;-2.73;59.49;102925.44;5036072;28;20035;-64
2024/01/10 10:37:38;;;;;;;19.17;10.03;;;;;;;-2.69;59.50;102924.47;5036237;28;20115;-64
2024/01/10 10:40:04;;;;;;;18.67;10.30;;;;;;;-2.64;59.39;102922.63;5041811;28;20031;-64
2024/01/10 10:42:31;;;;;;;19.63;10.03;;;;;;;-2.54;60.08;102931.94;5033804;28;20028;-64
2024/01/10 10:45:02;;;;;;;16.80;9.43;;;;;;;-2.46;59.33;102923.94;5034304;28;20110;-64
2024/01/10 10:47:34;;;;;;;20.37;10.10;;;;;;;-2.44;59.29;102928.22;5032936;28;20028;-64
2024/01/10 10:50:03;;;;;;;20.60;10.60;;;;;;;-2.38;59.17;102920.28;5034682;28;20021;-64
2024/01/10 10:52:30;;;;;;;21.75;10.77;;;;;;;-2.33;58.99;102918.41;5035027;28;20036;-64
2024/01/10 10:54:58;;;;;;;19.67;10.50;;;;;;;-2.23;58.67;102924.28;5032543;28;20040;-64
2024/01/10 10:57:25;;;;;;;21.07;11.20;;;;;;;-2.25;58.69;102911.31;5032531;28;20083;-64
2024/01/10 10:59:53;;;;;;;22.03;10.70;;;;;;;-2.22;58.72;102913.81;5031374;28;20690;-64
2024/01/10 11:02:24;;;;;;;21.10;10.80;;;;;;;-2.18;58.25;102909.41;5034713;28;20087;-64
2024/01/10 11:04:51;;;;;;;22.53;10.20;;;;;;;-2.18;58.14;102919.81;5034359;28;20095;-64
2024/01/10 11:07:17;;;;;;;20.53;10.50;;;;;;;-2.14;57.99;102918.84;5035880;28;20029;-64
2024/01/10 11:09:45;;;;;;;41.43;18.77;;;;;;;-2.11;58.00;102917.91;5041443;28;20037;-64
2024/01/10 11:12:10;;;;;;;21.33;11.07;;;;;;;-2.06;58.00;102903.88;5037463;28;20033;-64